Time;durP1;ratioP1;P1;durP2;ratioP2;P2;SDS_P1;SDS_P2;PMS_P1;PMS_P2;Temp;Humidity;BMP_temperature;BMP_pressure;BME280_temperature;BME280_humidity;BME280_pressure;Samples;Min_cycle;Max_cycle;Signal;HPM_P1;HPM_P2
2023/06/07 00:04:32;;;;;;;8.90;6.40;;;;;;;19.52;67.35;99043.10;223440;182;138366;-64
2023/06/07 00:09:36;;;;;;;8.60;6.60;;;;;;;19.49;67.47;99041.23;223468;182;136652;-64
2023/06/07 00:14:39;;;;;;;9.30;6.40;;;;;;;19.49;67.59;99041.77;223434;182;147249;-61
2023/06/07 00:19:42;;;;;;;9.50;6.30;;;;;;;19.47;67.72;99042.70;223553;192;138449;-62
2023/06/07 00:24:45;;;;;;;9.50;6.90;;;;;;;19.48;67.78;99041.88;223531;182;137019;-63
2023/06/07 00:29:48;;;;;;;10.60;6.90;;;;;;;19.52;68.16;99041.10;223530;183;146472;-61
2023/06/07 00:34:51;;;;;;;8.90;6.40;;;;;;;19.53;68.07;99040.88;223434;204;138888;-62
2023/06/07 00:39:55;;;;;;;7.60;6.40;;;;;;;19.50;68.03;99038.70;223464;185;136835;-64
2023/06/07 00:44:58;;;;;;;7.90;6.30;;;;;;;19.45;68.19;99036.92;223523;182;145867;-59
2023/06/07 00:50:03;;;;;;;7.90;6.80;;;;;;;19.41;68.56;99032.70;223608;209;140382;-66
2023/06/07 00:55:08;;;;;;;8.40;6.10;;;;;;;19.38;68.66;99032.99;223600;187;136918;-64
2023/06/07 01:00:13;;;;;;;9.00;5.70;;;;;;;19.35;68.90;99027.92;223515;182;145803;-65
2023/06/07 01:05:20;;;;;;;10.50;7.00;;;;;;;19.37;69.12;99031.84;223507;182;138399;-65
2023/06/07 01:10:27;;;;;;;7.50;6.70;;;;;;;19.40;69.04;99032.24;223496;182;137438;-61
2023/06/07 01:15:31;;;;;;;8.80;7.90;;;;;;;19.40;69.12;99026.86;223432;183;145310;-64
2023/06/07 01:20:37;;;;;;;10.80;7.50;;;;;;;19.43;69.36;99027.32;223575;199;138467;-62
2023/06/07 01:25:40;;;;;;;10.60;8.00;;;;;;;19.38;69.43;99022.52;223566;210;137232;-60
2023/06/07 01:30:45;;;;;;;8.90;7.80;;;;;;;19.34;69.53;99022.09;223512;182;146262;-62
2023/06/07 01:35:51;;;;;;;8.90;8.00;;;;;;;19.34;69.59;99018.81;223484;183;139527;-61
2023/06/07 01:40:56;;;;;;;8.20;7.30;;;;;;;19.37;69.53;99015.79;223531;182;136926;-65
2023/06/07 01:46:00;;;;;;;9.60;8.00;;;;;;;19.37;69.66;99011.70;223518;182;145766;-63
2023/06/07 01:51:04;;;;;;;8.80;7.80;;;;;;;19.37;69.70;99014.39;223454;182;139142;-62
2023/06/07 01:56:16;;;;;;;9.80;8.10;;;;;;;19.35;69.61;99013.29;223485;181;137534;-63
2023/06/07 02:01:29;;;;;;;11.00;8.10;;;;;;;19.33;69.71;99009.02;223567;187;145359;-66
2023/06/07 02:06:36;;;;;;;9.30;7.60;;;;;;;19.29;69.79;99009.77;223509;182;138995;-67
2023/06/07 02:11:41;;;;;;;8.70;7.30;;;;;;;19.28;69.97;99010.58;223598;182;138977;-62
2023/06/07 02:16:44;;;;;;;10.60;7.50;;;;;;;19.30;69.86;99012.33;223456;182;145980;-63
2023/06/07 02:21:47;;;;;;;9.60;7.40;;;;;;;19.32;69.77;99010.55;223519;184;138512;-63
2023/06/07 02:26:53;;;;;;;10.00;7.80;;;;;;;19.30;69.92;99010.95;223490;181;137522;-66
2023/06/07 02:32:00;;;;;;;11.80;8.10;;;;;;;19.26;69.92;99007.35;223564;216;145670;-65
2023/06/07 02:37:04;;;;;;;9.70;7.50;;;;;;;19.21;69.96;99006.63;223457;206;265707;-67
2023/06/07 02:42:08;;;;;;;8.90;7.40;;;;;;;19.12;70.23;99006.15;223574;182;136552;-67
2023/06/07 02:47:11;;;;;;;11.50;7.70;;;;;;;19.10;70.32;99009.81;223556;216;146734;-63
2023/06/07 02:52:14;;;;;;;9.30;7.60;;;;;;;19.12;70.48;99007.43;223507;193;138871;-67
2023/06/07 02:57:17;;;;;;;9.30;8.20;;;;;;;19.15;70.25;99008.24;223475;182;136647;-68
2023/06/07 03:02:20;;;;;;;9.50;8.10;;;;;;;19.13;70.33;99013.12;223552;183;145689;-72
2023/06/07 03:07:25;;;;;;;12.00;8.10;;;;;;;19.11;70.44;99016.52;223598;183;138578;-68
2023/06/07 03:12:29;;;;;;;12.10;9.30;;;;;;;19.10;70.46;99018.64;223607;182;137149;-72
2023/06/07 03:17:33;;;;;;;9.30;7.80;;;;;;;19.06;70.51;99017.24;223496;182;147674;-66
2023/06/07 03:22:36;;;;;;;11.80;8.10;;;;;;;19.06;70.57;99021.52;223419;186;138418;-61
2023/06/07 03:27:43;;;;;;;11.20;7.40;;;;;;;19.11;70.57;99022.50;223530;183;137644;-63
2023/06/07 03:32:54;;;;;;;12.80;8.50;;;;;;;19.13;70.67;99022.83;223469;182;146197;-65
2023/06/07 03:38:01;;;;;;;9.50;8.10;;;;;;;19.15;70.55;99023.75;223526;193;138396;-62
2023/06/07 03:43:13;;;;;;;11.00;8.20;;;;;;;19.15;70.46;99021.92;223599;183;137268;-63
2023/06/07 03:48:18;;;;;;;9.90;7.80;;;;;;;19.12;70.47;99025.80;223524;183;145352;-63
2023/06/07 03:53:21;;;;;;;11.10;7.70;;;;;;;19.09;70.63;99027.34;223441;182;138592;-65
2023/06/07 03:58:24;;;;;;;11.60;8.00;;;;;;;19.09;70.62;99027.49;223438;182;138114;-62
2023/06/07 04:03:30;;;;;;;9.50;7.50;;;;;;;19.12;70.62;99027.57;223494;182;145882;-63
2023/06/07 04:08:37;;;;;;;8.70;7.00;;;;;;;19.19;70.52;99031.11;223545;204;138416;-64
2023/06/07 04:13:44;;;;;;;8.70;7.40;;;;;;;19.21;70.44;99025.00;223558;178;137469;-63
2023/06/07 04:18:47;;;;;;;49.40;43.50;;;;;;;19.21;70.39;99024.60;223517;182;145833;-63
2023/06/07 04:23:51;;;;;;;88.30;72.70;;;;;;;19.24;70.50;99024.64;223477;183;141011;-63
2023/06/07 04:28:58;;;;;;;12.20;8.20;;;;;;;19.27;70.50;99027.58;223427;205;137393;-65
2023/06/07 04:34:06;;;;;;;193.80;167.70;;;;;;;19.32;70.48;99032.48;223449;182;145546;-63
2023/06/07 04:39:10;;;;;;;16.50;12.00;;;;;;;19.40;70.54;99035.32;220858;182;140028;-66
2023/06/07 04:44:28;;;;;;;11.10;8.20;;;;;;;19.44;70.24;99036.56;223517;186;137063;-63
2023/06/07 04:49:40;;;;;;;248.00;202.00;;;;;;;19.46;70.31;99039.26;223539;183;145327;-63
2023/06/07 04:54:46;;;;;;;26.60;21.10;;;;;;;19.50;70.46;99042.17;223434;183;138821;-69
2023/06/07 04:59:52;;;;;;;11.30;8.50;;;;;;;19.56;70.26;99044.80;223532;182;140424;-65
2023/06/07 05:05:04;;;;;;;12.60;7.90;;;;;;;19.62;70.22;99044.30;223489;182;148635;-73
2023/06/07 05:10:07;;;;;;;79.60;65.30;;;;;;;19.67;70.12;99043.70;223419;182;139051;-63
2023/06/07 05:15:11;;;;;;;15.20;8.40;;;;;;;19.78;70.18;99039.83;223485;182;138465;-64
2023/06/07 05:20:17;;;;;;;10.90;7.80;;;;;;;19.89;69.93;99038.21;223515;216;145849;-64
2023/06/07 05:25:20;;;;;;;146.40;118.40;;;;;;;19.95;69.57;99034.33;223474;183;138411;-65
2023/06/07 05:30:34;;;;;;;95.10;77.20;;;;;;;20.00;69.56;99030.38;223495;182;137486;-63
2023/06/07 05:35:38;;;;;;;15.20;9.90;;;;;;;20.06;69.21;99028.17;223521;181;145860;-64
2023/06/07 05:40:42;;;;;;;8.90;8.00;;;;;;;20.07;68.99;99036.53;223432;182;140512;-64
2023/06/07 05:45:45;;;;;;;11.90;7.60;;;;;;;20.09;69.00;99037.05;223537;182;136720;-61
2023/06/07 05:50:49;;;;;;;11.10;7.00;;;;;;;20.13;68.85;99033.26;223456;182;145096;-62
2023/06/07 05:55:53;;;;;;;367.80;293.00;;;;;;;20.20;68.65;99039.36;223472;182;138147;-60
2023/06/07 06:00:59;;;;;;;45.80;37.40;;;;;;;20.32;68.69;99039.42;223506;183;137189;-60
2023/06/07 06:06:16;;;;;;;9.80;8.50;;;;;;;20.40;67.79;99042.25;223560;181;145607;-63
2023/06/07 06:13:50;;;;;;;8.10;7.00;;;;;;;20.49;67.30;99043.20;219729;214;666823;-65
2023/06/07 06:18:54;;;;;;;14.00;7.20;;;;;;;20.49;66.98;99049.70;220821;183;136761;-65
2023/06/07 06:23:57;;;;;;;12.50;7.70;;;;;;;20.49;66.93;99050.27;220966;183;144206;-64
2023/06/07 06:29:01;;;;;;;10.50;6.50;;;;;;;20.51;67.03;99050.64;221714;183;142006;-63
2023/06/07 06:34:05;;;;;;;35.70;30.30;;;;;;;20.57;67.04;99052.92;223453;182;139792;-63
2023/06/07 06:39:08;;;;;;;13.00;9.80;;;;;;;20.68;67.02;99047.23;223538;183;143495;-60
2023/06/07 06:44:12;;;;;;;6.20;5.20;;;;;;;20.79;66.61;99045.77;223657;193;138288;-63
2023/06/07 06:49:17;;;;;;;6.60;5.10;;;;;;;20.83;66.03;99048.98;223543;183;136464;-63
2023/06/07 06:54:21;;;;;;;7.70;5.80;;;;;;;20.88;65.86;99049.64;223574;183;143506;-71
2023/06/07 06:59:25;;;;;;;7.50;5.60;;;;;;;20.95;65.81;99045.16;221338;183;139335;-66
2023/06/07 07:04:29;;;;;;;10.00;5.50;;;;;;;21.05;65.25;99048.58;223435;182;137401;-67
2023/06/07 07:09:32;;;;;;;7.60;5.80;;;;;;;21.10;65.04;99048.31;223398;183;145280;-67
2023/06/07 07:14:35;;;;;;;6.80;5.40;;;;;;;21.12;64.84;99045.73;223468;183;138427;-68
2023/06/07 07:19:38;;;;;;;217.30;167.90;;;;;;;21.14;64.57;99047.97;223497;210;138666;-65
2023/06/07 07:24:42;;;;;;;14.10;10.10;;;;;;;21.30;64.90;99049.23;223457;216;145273;-64
2023/06/07 07:29:45;;;;;;;9.00;6.90;;;;;;;21.48;64.26;99050.59;223469;216;138906;-66
2023/06/07 07:34:48;;;;;;;5.30;4.70;;;;;;;21.56;63.72;99049.00;223399;193;136476;-68
2023/06/07 07:39:51;;;;;;;8.10;5.40;;;;;;;21.62;63.13;99046.50;223484;193;146006;-67
2023/06/07 07:44:54;;;;;;;6.40;5.00;;;;;;;21.68;62.84;99044.96;223372;216;139984;-67
2023/06/07 07:49:58;;;;;;;6.40;5.10;;;;;;;21.79;62.38;99042.70;223509;216;137749;-66
2023/06/07 07:55:02;;;;;;;5.50;4.70;;;;;;;21.89;62.19;99044.89;223533;184;146417;-68
2023/06/07 08:00:09;;;;;;;6.90;4.90;;;;;;;21.89;61.71;99042.95;223534;183;139045;-71
2023/06/07 08:05:19;;;;;;;28.00;21.90;;;;;;;21.87;61.85;99038.71;223398;183;136600;-71
2023/06/07 08:10:29;;;;;;;6.70;5.70;;;;;;;21.88;61.49;99039.34;223447;183;147032;-69
2023/06/07 08:15:32;;;;;;;6.60;4.80;;;;;;;21.89;61.45;99037.23;223543;182;138184;-66
2023/06/07 08:20:36;;;;;;;11.50;5.20;;;;;;;21.87;61.02;99038.15;223595;192;139226;-65
2023/06/07 08:25:39;;;;;;;9.90;4.50;;;;;;;21.88;61.07;99038.16;223493;181;145910;-64
2023/06/07 08:30:42;;;;;;;10.40;3.70;;;;;;;21.87;61.32;99041.31;223527;181;138522;-66
2023/06/07 08:35:45;;;;;;;5.10;3.30;;;;;;;21.90;61.22;99038.36;223578;182;136503;-68
2023/06/07 08:40:48;;;;;;;4.60;3.60;;;;;;;21.99;60.46;99035.46;223621;182;145770;-68
2023/06/07 08:45:53;;;;;;;6.00;3.80;;;;;;;22.05;60.30;99032.29;223527;182;139436;-71
2023/06/07 08:51:00;;;;;;;4.50;3.60;;;;;;;22.13;60.43;99030.83;223588;215;136027;-66
2023/06/07 08:56:04;;;;;;;5.20;3.40;;;;;;;22.13;60.01;99027.98;223560;214;149368;-68
2023/06/07 09:01:08;;;;;;;6.70;3.30;;;;;;;22.12;59.59;99027.16;223457;191;139316;-65
2023/06/07 09:06:11;;;;;;;5.20;3.50;;;;;;;22.18;59.85;99029.55;223381;204;136849;-70
2023/06/07 09:11:20;;;;;;;6.70;4.70;;;;;;;22.22;59.91;99031.49;223332;182;145069;-68
2023/06/07 09:16:53;;;;;;;7.30;4.20;;;;;;;22.25;59.84;99031.53;223390;182;138649;-64
2023/06/07 09:21:57;;;;;;;7.00;3.40;;;;;;;22.37;59.86;99034.21;223486;182;137350;-65
2023/06/07 09:27:02;;;;;;;7.00;3.50;;;;;;;22.41;59.20;99038.61;223605;214;147276;-72
2023/06/07 09:32:24;;;;;;;5.80;3.60;;;;;;;22.41;59.09;99035.34;223689;181;138558;-64
2023/06/07 09:37:40;;;;;;;5.50;3.30;;;;;;;22.48;58.87;99042.19;223743;181;136862;-66
2023/06/07 09:42:57;;;;;;;6.20;3.00;;;;;;;22.53;58.74;99032.80;223580;181;145796;-65
2023/06/07 09:48:04;;;;;;;6.90;3.10;;;;;;;22.57;58.53;99028.64;223605;181;138330;-68
2023/06/07 09:53:09;;;;;;;6.80;2.90;;;;;;;22.58;57.98;99027.29;223729;181;139116;-66
2023/06/07 09:58:22;;;;;;;4.70;2.60;;;;;;;22.58;57.69;99024.91;223619;181;146227;-73
2023/06/07 10:03:28;;;;;;;5.60;2.70;;;;;;;22.69;57.69;99023.03;223653;181;140071;-66
2023/06/07 10:08:32;;;;;;;3.40;2.70;;;;;;;23.01;57.74;99021.70;223727;181;136084;-65
2023/06/07 10:13:37;;;;;;;4.40;2.90;;;;;;;23.27;56.95;99014.91;223600;181;146415;-68
2023/06/07 10:18:44;;;;;;;8.40;3.20;;;;;;;23.37;56.48;99007.77;223700;181;138273;-69
2023/06/07 10:23:53;;;;;;;4.00;2.70;;;;;;;23.41;56.14;99005.20;223706;182;138567;-70
2023/06/07 10:29:09;;;;;;;42.80;32.60;;;;;;;23.47;56.15;99007.04;223504;181;146772;-67
2023/06/07 10:34:14;;;;;;;4.60;3.40;;;;;;;23.87;55.53;99004.91;223567;181;138744;-66
2023/06/07 10:39:18;;;;;;;;;;;;;;;24.04;54.06;99000.45;223737;181;137605;-68
2023/06/07 10:44:22;;;;;;;4.00;2.40;;;;;;;24.00;53.31;99002.05;223796;181;146473;-66
2023/06/07 10:49:36;;;;;;;4.40;2.80;;;;;;;24.32;53.06;99001.38;223551;181;139378;-66
2023/06/07 10:54:41;;;;;;;6.90;3.10;;;;;;;24.55;52.38;98997.89;223693;182;137402;-66
2023/06/07 10:59:44;;;;;;;7.10;3.60;;;;;;;24.41;52.49;99002.67;223658;182;145103;-65
2023/06/07 11:04:57;;;;;;;9.20;3.70;;;;;;;24.10;52.81;99001.40;223620;181;138688;-66
2023/06/07 11:10:04;;;;;;;11.50;4.00;;;;;;;23.90;53.23;99003.50;223648;181;137533;-68
2023/06/07 11:15:30;;;;;;;8.00;3.90;;;;;;;23.97;53.88;99006.42;223602;181;145888;-63
2023/06/07 11:20:40;;;;;;;5.80;3.70;;;;;;;24.19;54.01;99006.92;223515;204;138987;-64
2023/06/07 11:25:44;;;;;;;6.60;4.10;;;;;;;24.29;53.72;99011.30;223492;197;136714;-65
2023/06/07 11:30:49;;;;;;;5.90;4.00;;;;;;;24.19;53.68;99016.61;223579;182;146849;-65
2023/06/07 11:35:53;;;;;;;4.90;4.40;;;;;;;23.98;54.14;99021.92;223423;208;139380;-66
2023/06/07 11:40:57;;;;;;;6.30;5.00;;;;;;;23.86;54.64;99020.41;223517;182;138152;-65
2023/06/07 11:46:00;;;;;;;6.70;4.50;;;;;;;23.72;55.18;99024.98;223479;182;145379;-66
2023/06/07 11:51:03;;;;;;;6.50;4.10;;;;;;;23.51;55.64;99021.58;223511;182;138536;-62
2023/06/07 11:56:08;;;;;;;3.80;3.40;;;;;;;23.29;55.58;99018.34;223445;182;138222;-65
2023/06/07 12:01:12;;;;;;;3.80;2.40;;;;;;;23.09;55.27;99019.92;223550;192;145725;-64
2023/06/07 12:06:15;;;;;;;3.50;2.40;;;;;;;22.91;55.01;99018.67;223426;181;138164;-61
2023/06/07 12:11:24;;;;;;;2.80;2.50;;;;;;;22.84;55.32;99015.16;223490;192;137144;-66
2023/06/07 12:16:28;;;;;;;4.60;2.30;;;;;;;22.99;55.92;99008.17;223457;192;146905;-64
2023/06/07 12:21:32;;;;;;;16.50;11.30;;;;;;;23.20;55.21;99008.87;223410;214;138480;-69
2023/06/07 12:26:36;;;;;;;5.30;3.60;;;;;;;23.25;54.90;99007.40;223501;215;138000;-65
2023/06/07 12:31:46;;;;;;;6.40;3.40;;;;;;;23.32;55.40;98996.75;223566;182;145326;-65
2023/06/07 12:36:50;;;;;;;7.90;3.80;;;;;;;23.38;55.52;98998.81;223448;182;138614;-69
2023/06/07 12:41:53;;;;;;;5.20;3.70;;;;;;;23.48;55.99;98992.40;223484;181;137248;-64
2023/06/07 12:46:58;;;;;;;4.80;3.20;;;;;;;23.60;55.92;98987.73;223432;185;144629;-66
2023/06/07 12:52:02;;;;;;;5.70;2.50;;;;;;;23.69;55.95;98981.45;223453;182;140592;-71
2023/06/07 12:57:06;;;;;;;2.60;2.20;;;;;;;23.75;54.79;98980.77;223592;208;136952;-63
2023/06/07 13:02:10;;;;;;;2.70;2.00;;;;;;;23.75;54.30;98986.30;223532;181;145265;-65
2023/06/07 13:07:13;;;;;;;4.90;2.40;;;;;;;23.83;54.18;98980.58;223420;182;138082;-64
2023/06/07 13:12:17;;;;;;;4.80;2.10;;;;;;;24.03;54.33;98978.34;223511;182;136574;-72
2023/06/07 13:17:20;;;;;;;2.00;1.60;;;;;;;24.44;53.44;98973.83;223406;181;146270;-68
2023/06/07 13:22:23;;;;;;;2.90;1.80;;;;;;;24.92;52.55;98971.73;223453;182;138289;-65
2023/06/07 13:27:27;;;;;;;95.50;77.30;;;;;;;25.55;50.94;98969.73;223439;214;139319;-66
2023/06/07 13:32:30;;;;;;;4.80;4.10;;;;;;;25.59;50.05;98970.66;223286;181;145201;-64
2023/06/07 13:37:34;;;;;;;3.40;2.90;;;;;;;25.68;49.87;98972.81;223390;187;139890;-68
2023/06/07 13:42:39;;;;;;;4.40;3.30;;;;;;;26.06;49.77;98967.91;223453;182;137098;-67
2023/06/07 13:47:42;;;;;;;4.60;3.00;;;;;;;26.07;49.86;98962.59;223540;181;146274;-66
2023/06/07 13:52:45;;;;;;;3.70;3.00;;;;;;;25.83;50.07;98962.23;223608;215;138653;-64
2023/06/07 13:57:48;;;;;;;5.60;2.90;;;;;;;25.55;50.38;98960.16;223718;215;137912;-63
2023/06/07 14:02:52;;;;;;;3.50;2.70;;;;;;;25.26;50.63;98962.89;223446;203;146946;-65
2023/06/07 14:07:55;;;;;;;4.50;3.20;;;;;;;25.03;50.97;98968.21;223599;181;138324;-69
2023/06/07 14:12:59;;;;;;;3.10;2.70;;;;;;;24.89;51.07;98969.97;223653;181;137676;-69
2023/06/07 14:18:02;;;;;;;4.40;2.60;;;;;;;24.76;51.55;98967.00;221778;181;147163;-74
2023/06/07 14:23:07;;;;;;;3.40;2.80;;;;;;;24.85;52.18;98967.67;223507;181;138801;-69
2023/06/07 14:28:10;;;;;;;4.70;2.70;;;;;;;25.07;51.70;98949.57;223658;182;136828;-66
2023/06/07 14:33:13;;;;;;;3.90;2.50;;;;;;;25.11;51.13;98955.42;223562;181;146078;-69
2023/06/07 14:38:16;;;;;;;7.10;2.40;;;;;;;24.99;51.02;98961.65;223662;181;138604;-68
2023/06/07 14:43:20;;;;;;;5.50;2.50;;;;;;;24.83;50.89;98960.59;223632;181;139414;-69
2023/06/07 14:48:23;;;;;;;6.30;2.60;;;;;;;24.71;51.60;98960.73;223662;181;148778;-66
2023/06/07 14:53:26;;;;;;;7.90;2.60;;;;;;;24.62;52.10;98961.77;223484;182;139372;-64
2023/06/07 14:58:29;;;;;;;2.90;2.00;;;;;;;24.54;51.62;98957.52;223672;182;137400;-67
2023/06/07 15:03:35;;;;;;;3.30;2.10;;;;;;;24.41;51.62;98959.48;223543;182;259248;-67
2023/06/07 15:08:38;;;;;;;2.60;2.00;;;;;;;24.32;51.51;98960.74;223640;181;139717;-67
2023/06/07 15:13:42;;;;;;;5.10;1.60;;;;;;;24.34;51.16;98966.67;223594;182;137164;-68
2023/06/07 15:18:45;;;;;;;1.80;1.60;;;;;;;24.31;50.60;98967.75;223357;212;147010;-67
2023/06/07 15:23:49;;;;;;;3.90;1.80;;;;;;;24.26;50.84;98968.44;223389;215;140142;-69
2023/06/07 16:13:51;;;;;;;3.90;2.50;;;;;;;23.21;54.90;98989.89;221635;193;665156;-69
2023/06/07 16:18:54;;;;;;;8.00;4.20;;;;;;;23.13;55.16;98994.07;223548;183;135947;-72
2023/06/07 16:23:58;;;;;;;3.20;2.00;;;;;;;23.04;55.08;98989.70;223542;184;143690;-72
2023/06/07 16:29:03;;;;;;;3.70;2.10;;;;;;;22.97;55.01;98993.47;223541;183;141033;-71
2023/06/07 16:34:07;;;;;;;2.80;2.30;;;;;;;22.92;54.72;98995.40;223557;183;136005;-71
2023/06/07 16:39:10;;;;;;;3.00;2.30;;;;;;;22.89;55.05;98986.55;223581;183;143791;-68
2023/06/07 16:44:14;;;;;;;7.60;3.00;;;;;;;22.80;55.23;98986.77;223582;183;138603;-72
2023/06/07 16:49:17;;;;;;;12.50;7.60;;;;;;;22.73;55.95;98979.85;223636;183;136283;-67
2023/06/07 16:54:21;;;;;;;3.90;2.90;;;;;;;22.67;56.42;98981.19;223636;183;143982;-67
2023/06/07 16:59:24;;;;;;;6.00;3.20;;;;;;;22.63;56.72;98978.58;223569;183;138563;-66
2023/06/07 17:04:28;;;;;;;36.30;29.90;;;;;;;22.62;56.90;98978.21;223576;183;136165;-66
2023/06/07 17:09:31;;;;;;;10.10;6.30;;;;;;;22.64;56.92;98977.42;223686;183;146826;-68
2023/06/07 17:14:34;;;;;;;4.80;3.50;;;;;;;22.62;57.05;98974.73;223475;183;140025;-66
2023/06/07 17:19:38;;;;;;;5.80;3.40;;;;;;;22.59;56.98;98972.77;223520;184;136392;-67
2023/06/07 17:24:42;;;;;;;51.00;41.90;;;;;;;22.59;57.18;98968.84;223346;183;145323;-68
2023/06/07 17:29:45;;;;;;;7.70;6.40;;;;;;;22.56;58.01;98976.55;223344;183;138460;-66
2023/06/07 17:34:48;;;;;;;6.00;3.60;;;;;;;22.54;58.00;98975.52;223238;183;136951;-65
2023/06/07 17:39:51;;;;;;;6.30;4.50;;;;;;;22.51;58.29;98982.41;223426;198;145528;-65
2023/06/07 17:44:55;;;;;;;4.40;3.40;;;;;;;22.45;58.59;98989.30;223433;216;141382;-65
2023/06/07 17:49:58;;;;;;;4.70;3.20;;;;;;;22.38;58.69;98995.11;223371;183;136282;-65
2023/06/07 17:55:01;;;;;;;3.90;3.40;;;;;;;22.32;59.17;98993.99;223439;184;146124;-65
2023/06/07 18:00:05;;;;;;;10.50;8.70;;;;;;;22.27;59.14;98986.29;223499;183;138165;-66
2023/06/07 18:05:20;;;;;;;9.00;4.50;;;;;;;22.26;59.82;98985.13;223364;189;137089;-66
2023/06/07 18:10:23;;;;;;;6.90;4.20;;;;;;;22.22;60.31;98993.75;223400;184;146079;-67
2023/06/07 18:15:27;;;;;;;5.30;3.50;;;;;;;22.16;61.28;99002.52;223353;210;140150;-67
2023/06/07 18:20:31;;;;;;;4.30;3.00;;;;;;;22.14;61.15;99004.50;223352;184;137419;-67
2023/06/07 18:25:34;;;;;;;6.50;2.90;;;;;;;22.11;59.27;99007.92;223415;183;146746;-68
2023/06/07 18:30:37;;;;;;;5.60;3.20;;;;;;;22.08;58.74;99007.91;223382;216;138449;-66
2023/06/07 18:35:40;;;;;;;6.90;3.20;;;;;;;22.05;58.76;98998.34;223327;183;136551;-67
2023/06/07 18:40:43;;;;;;;5.60;3.30;;;;;;;22.01;59.39;98996.80;223339;206;145940;-67
2023/06/07 18:45:47;;;;;;;6.30;3.00;;;;;;;21.96;59.97;98998.36;223433;206;138367;-68
2023/06/07 18:50:51;;;;;;;10.90;4.60;;;;;;;21.91;60.13;99007.95;223447;183;136561;-68
2023/06/07 18:55:54;;;;;;;8.30;3.80;;;;;;;21.88;60.57;99009.77;223389;184;145749;-66
2023/06/07 19:00:57;;;;;;;216.80;176.60;;;;;;;21.83;61.31;99009.02;223363;183;138374;-67
2023/06/07 19:06:01;;;;;;;21.50;18.10;;;;;;;21.78;61.38;99018.59;223396;187;140252;-67
2023/06/07 19:11:05;;;;;;;13.90;10.60;;;;;;;21.75;62.47;99029.23;223297;183;146058;-68
2023/06/07 19:16:08;;;;;;;7.60;6.50;;;;;;;21.72;63.42;99035.78;223403;183;138217;-67
2023/06/07 19:21:20;;;;;;;10.90;7.30;;;;;;;21.69;63.61;99038.88;223445;188;136680;-68
2023/06/07 19:26:28;;;;;;;211.40;170.20;;;;;;;21.68;63.78;99043.88;223320;183;145890;-68
2023/06/07 19:31:32;;;;;;;26.80;21.60;;;;;;;21.64;62.80;99048.04;223299;216;139231;-63
2023/06/07 19:36:36;;;;;;;7.80;4.50;;;;;;;21.57;62.75;99048.59;223358;195;140786;-65
2023/06/07 19:41:41;;;;;;;;;;;;;;;21.48;62.66;99049.27;223447;184;145177;-66
2023/06/07 19:46:46;;;;;;;9.00;4.00;;;;;;;21.40;62.88;99047.29;223186;185;139301;-69
2023/06/07 19:51:49;;;;;;;11.80;8.20;;;;;;;21.29;63.60;99051.98;223273;185;140028;-69
2023/06/07 19:56:53;;;;;;;198.80;167.90;;;;;;;21.30;66.48;99052.30;223122;185;145394;-69
2023/06/07 20:01:57;;;;;;;27.20;13.70;;;;;;;21.29;65.88;99050.42;223203;184;138522;-68
2023/06/07 20:07:01;;;;;;;26.20;19.40;;;;;;;21.28;66.05;99054.48;223174;184;136993;-69
2023/06/07 20:12:08;;;;;;;11.20;5.50;;;;;;;21.27;66.36;99054.01;223181;184;145192;-68
2023/06/07 20:17:13;;;;;;;6.60;5.10;;;;;;;21.23;64.91;99049.96;223158;184;140428;-65
2023/06/07 20:22:16;;;;;;;10.00;5.60;;;;;;;21.09;64.79;99049.46;223152;218;136734;-73
2023/06/07 20:27:19;;;;;;;9.70;5.80;;;;;;;20.97;65.09;99045.65;223247;218;145830;-63
2023/06/07 20:32:22;;;;;;;11.20;6.00;;;;;;;20.86;65.35;99043.90;223313;184;138660;-71
2023/06/07 20:37:26;;;;;;;14.80;6.00;;;;;;;20.75;65.59;99052.49;223440;184;137161;-63
2023/06/07 20:42:29;;;;;;;13.20;6.90;;;;;;;20.63;66.01;99049.81;223386;185;145429;-66
2023/06/07 20:47:33;;;;;;;9.10;6.10;;;;;;;20.50;66.09;99048.94;223348;184;138742;-64
2023/06/07 20:52:37;;;;;;;10.70;6.00;;;;;;;20.36;66.52;99048.91;223569;183;136501;-67
2023/06/07 20:57:40;;;;;;;10.70;5.70;;;;;;;20.27;66.77;99053.92;223576;184;145346;-70
2023/06/07 21:02:43;;;;;;;11.30;6.50;;;;;;;20.23;66.95;99059.45;223484;183;138456;-67
2023/06/07 21:07:47;;;;;;;9.70;5.60;;;;;;;20.16;67.10;99057.10;223510;183;137316;-65
2023/06/07 21:12:50;;;;;;;8.20;6.00;;;;;;;20.08;67.38;99063.08;223436;183;146040;-68
2023/06/07 21:17:53;;;;;;;10.80;6.20;;;;;;;19.99;67.75;99063.60;223561;183;138896;-70
2023/06/07 21:22:56;;;;;;;8.30;5.90;;;;;;;19.92;67.72;99065.63;223439;183;137074;-68
2023/06/07 21:27:59;;;;;;;11.00;6.30;;;;;;;19.82;68.11;99060.27;223628;184;145851;-69
2023/06/07 21:33:06;;;;;;;12.20;5.70;;;;;;;19.73;68.32;99059.90;223625;183;139660;-67
2023/06/07 21:38:14;;;;;;;9.60;5.40;;;;;;;19.68;68.59;99057.58;223564;183;140482;-73
2023/06/07 21:43:18;;;;;;;8.10;5.60;;;;;;;19.66;68.80;99053.34;223069;183;145321;-73
2023/06/07 21:48:21;;;;;;;10.10;6.40;;;;;;;19.64;68.94;99051.02;222022;184;140620;-74
2023/06/07 21:53:25;;;;;;;8.60;6.60;;;;;;;19.60;69.15;99046.61;223468;183;136776;-69
2023/06/07 21:58:28;;;;;;;11.20;6.30;;;;;;;19.58;69.42;99046.58;223473;183;145395;-66
2023/06/07 22:03:32;;;;;;;9.60;6.90;;;;;;;19.53;69.59;99044.67;223706;183;139185;-73
2023/06/07 22:08:38;;;;;;;8.40;6.50;;;;;;;19.45;69.80;99044.73;223540;184;137284;-70
2023/06/07 22:13:44;;;;;;;10.20;6.40;;;;;;;19.39;70.03;99034.29;223482;184;145630;-67
2023/06/07 22:18:48;;;;;;;9.10;6.70;;;;;;;19.40;69.95;99028.70;223449;184;140190;-69
2023/06/07 22:23:51;;;;;;;8.30;7.10;;;;;;;19.39;69.88;99028.05;223584;184;136564;-72
2023/06/07 22:28:59;;;;;;;8.90;7.30;;;;;;;19.34;69.85;99025.23;223504;183;146180;-67
2023/06/07 22:34:04;;;;;;;9.10;7.50;;;;;;;19.28;69.94;99021.23;223577;182;138598;-68
2023/06/07 22:39:10;;;;;;;8.30;7.20;;;;;;;19.19;70.12;99023.51;223517;183;136639;-65
2023/06/07 22:44:14;;;;;;;10.70;6.90;;;;;;;19.13;70.30;99022.31;223495;183;145667;-73
2023/06/07 22:49:18;;;;;;;10.20;6.70;;;;;;;19.10;70.40;99021.54;223426;183;140748;-69
2023/06/07 22:54:22;;;;;;;9.10;7.30;;;;;;;19.10;70.21;99021.14;222042;183;137135;-72
2023/06/07 22:59:26;;;;;;;12.00;7.10;;;;;;;19.11;70.16;99023.40;222399;183;146297;-67
2023/06/07 23:04:33;;;;;;;11.60;8.00;;;;;;;19.05;70.14;99024.52;223408;183;138601;-68
2023/06/07 23:09:37;;;;;;;12.10;7.40;;;;;;;18.94;70.07;99020.73;223460;183;137763;-69
2023/06/07 23:14:42;;;;;;;11.50;7.70;;;;;;;18.83;70.14;99022.02;222780;185;145612;-69
2023/06/07 23:19:49;;;;;;;12.80;7.30;;;;;;;18.68;69.96;99017.26;223303;183;138404;-67
2023/06/07 23:24:53;;;;;;;13.40;8.50;;;;;;;18.58;69.85;99013.00;223393;183;140061;-68
2023/06/07 23:29:56;;;;;;;12.20;7.80;;;;;;;18.53;69.67;99013.30;223509;184;145350;-66
2023/06/07 23:35:02;;;;;;;11.20;7.60;;;;;;;18.43;69.38;99015.54;223409;184;138738;-63
2023/06/07 23:40:15;;;;;;;15.70;8.20;;;;;;;18.35;69.41;99015.23;223487;184;137237;-68
2023/06/07 23:45:26;;;;;;;12.40;7.50;;;;;;;18.27;69.52;99012.23;223435;185;145612;-69
2023/06/07 23:50:31;;;;;;;11.90;7.50;;;;;;;18.20;69.89;99008.52;223409;184;139814;-67
2023/06/07 23:55:34;;;;;;;8.10;6.70;;;;;;;18.12;69.64;99007.49;223592;183;137215;-64
